This is the latest recevied weather packets stored in our database for station/object N2XP-2. If no packets are shown the sender has not sent any weather packets the latest 1 day(s).
| Time | Temp. | Humidity | Pressure | Rain* | Wind** | Luminosity | Snow |
|---|---|---|---|---|---|---|---|
| 1778082393 | 22.22° C | 68% | 1010.1 hPa | 0 mm | 1.79 m/s, 235° | - | - |
| 1778081751 | 22.22° C | 67% | 1010 hPa | 0 mm | 0.45 m/s, 70° | - | - |
| 1778081452 | 22.22° C | 67% | 1009.9 hPa | 0 mm | 0.89 m/s, 177° | - | - |
| 1778080736 | 21.67° C | 67% | 1010.2 hPa | 0 mm | 1.79 m/s, 233° | - | - |
| 1778079948 | 22.22° C | 67% | 1010.2 hPa | 0 mm | 0.89 m/s, 65° | - | - |
| 1778079346 | 22.22° C | 66% | 1010.1 hPa | 0 mm | 1.34 m/s, 256° | - | - |
| 1778079178 | 22.78° C | 66% | 1010.1 hPa | 0 mm | 1.34 m/s, 256° | - | - |
| 1778079047 | 22.78° C | 66% | 1010.1 hPa | 0 mm | 1.79 m/s, 218° | - | - |
| 1778078748 | 22.78° C | 66% | 1010.1 hPa | 0 mm | 1.34 m/s, 256° | - | - |
| 1778078552 | 22.22° C | 65% | 1010.1 hPa | 0 mm | 2.24 m/s, 225° | - | - |
| 1778078544 | 22.78° C | 65% | 1010.1 hPa | 0 mm | 1.34 m/s, 177° | - | - |
| 1778078537 | 22.78° C | 64% | 1010 hPa | 0 mm | 2.68 m/s, 269° | - | - |
| 1778077846 | 22.78° C | 66% | 1010.2 hPa | 0 mm | 1.34 m/s, 179° | - | - |
| 1778077543 | 22.78° C | 65% | 1010.2 hPa | 0 mm | 0.89 m/s, 210° | - | - |
| 1778076945 | 22.78° C | 65% | 1010.1 hPa | 0 mm | 1.34 m/s, 177° | - | - |
| 1778076642 | 22.78° C | 64% | 1010 hPa | 0 mm | 2.68 m/s, 269° | - | - |
| 1778076626 | 22.78° C | 65% | 1010.3 hPa | 0 mm | 1.34 m/s, 248° | - | - |
| 1778076618 | 22.78° C | 65% | 1010.3 hPa | 0 mm | 1.34 m/s, 214° | - | - |
| 1778076324 | 22.78° C | 64% | 1010.1 hPa | 0 mm | 1.34 m/s, 233° | - | - |
| 1778076025 | 23.33° C | 64% | 1010.1 hPa | 0 mm | 2.24 m/s, 233° | - | - |
| 1778075123 | 22.78° C | 65% | 1010.3 hPa | 0 mm | 1.34 m/s, 248° | - | - |
| 1778071817 | 20° C | 74% | 1010.6 hPa | 0 mm | 1.34 m/s, 193° | - | - |
| 1778071215 | 20° C | 75% | 1010.5 hPa | 0 mm | 1.79 m/s, 122° | - | - |
| 1778070916 | 20° C | 75% | 1010.5 hPa | 0 mm | 1.34 m/s, 203° | - | - |
| 1778070867 | 19.44° C | 77% | 1010.7 hPa | 0 mm | 1.79 m/s, 269° | - | - |
* Rain latest hour (hover to see other rain measurements)
** Current wind speed in m/s (hover to see current wind gust speed)